createdAt,value
2023-02-25T00:00:23.091Z,16.4
2023-02-25T00:10:23.084Z,16.4
2023-02-25T00:20:23.576Z,16.4
2023-02-25T00:30:24.183Z,16.4
2023-02-25T00:40:24.956Z,16.4
2023-02-25T00:50:25.082Z,16.4
2023-02-25T01:00:25.610Z,16.3
2023-02-25T01:10:26.045Z,16.4
2023-02-25T01:20:26.216Z,16.3
2023-02-25T01:30:26.194Z,16.3
2023-02-25T01:40:26.618Z,16.3
2023-02-25T01:50:28.541Z,16.1
2023-02-25T02:00:29.420Z,16.7
2023-02-25T02:10:29.345Z,16.1
2023-02-25T02:20:30.401Z,16.2
2023-02-25T02:30:31.157Z,16.3
2023-02-25T02:40:31.937Z,16.2
2023-02-25T02:50:33.136Z,16.2
2023-02-25T03:10:07.703Z,16.2
2023-02-25T03:20:08.324Z,16.1
2023-02-25T03:30:08.954Z,16.3
2023-02-25T03:40:10.172Z,16.4
2023-02-25T03:50:09.956Z,16.2
2023-02-25T04:00:11.517Z,16.4
2023-02-25T04:10:12.715Z,16.2
2023-02-25T04:20:14.745Z,16.2
2023-02-25T04:30:16.264Z,16.4
2023-02-25T04:40:18.608Z,16.6
2023-02-25T04:50:20.206Z,16.2
2023-02-25T05:00:21.119Z,16.2
2023-02-25T05:10:21.369Z,16.1
2023-02-25T05:20:21.563Z,16.1
2023-02-25T05:30:22.701Z,16.1
2023-02-25T05:40:23.235Z,16
2023-02-25T05:50:23.817Z,16.1
2023-02-25T06:00:25.177Z,16.3
2023-02-25T06:10:26.767Z,16.4
2023-02-25T06:20:27.543Z,16.3
2023-02-25T06:30:28.210Z,16.6
2023-02-25T06:40:29.405Z,16.3
2023-02-25T06:50:31.528Z,16.4
2023-02-25T07:00:38.137Z,16.9
2023-02-25T07:10:47.801Z,16.6
2023-02-25T07:20:53.193Z,16.4
2023-02-25T07:30:58.704Z,16.7
2023-02-25T07:41:03.861Z,16.7
2023-02-25T07:51:10.300Z,17.1
2023-02-25T08:01:25.389Z,17.1
2023-02-25T08:11:39.370Z,16.9
2023-02-25T08:21:53.365Z,16.9
2023-02-25T08:32:07.505Z,17.6
2023-02-25T08:42:19.432Z,17.1
2023-02-25T08:52:33.758Z,18.1
2023-02-25T09:10:14.773Z,17.8
2023-02-25T09:20:18.310Z,17.4
2023-02-25T09:30:18.615Z,17.6
2023-02-25T09:40:19.892Z,17.6
2023-02-25T09:50:21.753Z,17.9
2023-02-25T10:00:23.507Z,17.5
2023-02-25T10:10:26.231Z,17.6
2023-02-25T10:20:28.872Z,17.6
2023-02-25T10:30:30.877Z,17.6
2023-02-25T10:40:31.503Z,17.4
2023-02-25T10:50:44.743Z,17.6
2023-02-25T11:00:33.819Z,17.5
2023-02-25T11:10:34.224Z,17.7
2023-02-25T11:20:34.384Z,17.6
2023-02-25T11:30:35.229Z,17.6
2023-02-25T11:40:35.516Z,17.6
2023-02-25T11:50:36.208Z,17.8
2023-02-25T12:00:37.021Z,17.8
2023-02-25T12:10:37.577Z,17.8
2023-02-25T12:20:38.603Z,17.9
2023-02-25T12:30:39.280Z,17.9
2023-02-25T12:40:38.788Z,17.8
2023-02-25T12:50:39.850Z,18.1
2023-02-25T13:00:42.296Z,17.9
2023-02-25T13:10:48.227Z,17.9
2023-02-25T13:20:53.438Z,18.1
2023-02-25T13:30:57.276Z,18.2
2023-02-25T13:40:58.460Z,18.5
2023-02-25T13:51:00.733Z,18.4
2023-02-25T14:01:02.323Z,18.1
2023-02-25T14:11:01.875Z,18.1
2023-02-25T14:21:01.917Z,18.1
2023-02-25T14:31:02.701Z,18.2
2023-02-25T14:41:03.769Z,18.1
2023-02-25T14:51:04.651Z,18.6
2023-02-25T15:10:07.494Z,18.1
2023-02-25T15:20:07.521Z,18.4
2023-02-25T15:30:07.320Z,18
2023-02-25T15:40:07.370Z,18.2
2023-02-25T15:50:08.646Z,18.5
2023-02-25T16:00:08.963Z,17.9
2023-02-25T16:10:10.469Z,17.9
2023-02-25T16:20:12.450Z,17.9
2023-02-25T16:30:13.524Z,18
2023-02-25T16:40:16.107Z,17.9
2023-02-25T16:50:18.829Z,17.9
2023-02-25T17:00:19.403Z,17.9
2023-02-25T17:10:20.676Z,18.6
2023-02-25T17:20:20.732Z,17.9
2023-02-25T17:30:21.474Z,17.9
2023-02-25T17:40:21.116Z,17.9
2023-02-25T17:50:20.699Z,17.8
2023-02-25T18:00:20.745Z,17.9
2023-02-25T18:10:20.804Z,17.9
2023-02-25T18:20:21.239Z,17.8
2023-02-25T18:30:21.276Z,17.8
2023-02-25T18:40:21.742Z,17.8
2023-02-25T18:50:21.561Z,17.9
2023-02-25T19:00:22.879Z,17.8
2023-02-25T19:10:23.342Z,17.8
2023-02-25T19:20:23.419Z,17.8
2023-02-25T19:30:23.502Z,17.7
2023-02-25T19:40:24.412Z,17.8
2023-02-25T19:50:24.785Z,17.8
2023-02-25T20:00:24.646Z,17.8
2023-02-25T20:10:25.429Z,17.8
2023-02-25T20:20:25.353Z,17.7
2023-02-25T20:30:25.888Z,17.8
2023-02-25T20:40:26.458Z,17.8
2023-02-25T20:50:27.207Z,17.6
2023-02-25T21:10:08.439Z,17.6
2023-02-25T21:20:08.156Z,17.6
2023-02-25T21:30:08.144Z,17.6
2023-02-25T21:40:08.177Z,17.8
2023-02-25T21:50:07.875Z,17.8
2023-02-25T22:00:09.109Z,17.8
2023-02-25T22:10:09.986Z,17.8
2023-02-25T22:20:11.305Z,17.8
2023-02-25T22:30:12.342Z,17.8
2023-02-25T22:40:13.744Z,17.8
2023-02-25T22:50:15.166Z,17.8
2023-02-25T23:00:16.133Z,17.8
2023-02-25T23:10:17.583Z,17.8
2023-02-25T23:20:18.318Z,17.8
2023-02-25T23:30:18.747Z,17.9
2023-02-25T23:40:18.477Z,17.8
2023-02-25T23:50:18.541Z,17.8
